Time;durP1;ratioP1;P1;durP2;ratioP2;P2;SDS_P1;SDS_P2;PMS_P1;PMS_P2;Temp;Humidity;BMP_temperature;BMP_pressure;BME280_temperature;BME280_humidity;BME280_pressure;Samples;Min_cycle;Max_cycle;Signal;HPM_P1;HPM_P2
2022/12/20 00:01:35;;;;;;;9.00;4.28;;;13.50;78.80;;;;;;7377268;19;20197;-87
2022/12/20 00:04:07;;;;;;;10.35;3.97;;;13.50;80.00;;;;;;7394749;19;20330;-84
2022/12/20 00:06:37;;;;;;;11.88;4.60;;;13.50;79.10;;;;;;7372178;19;20018;-85
2022/12/20 00:09:08;;;;;;;12.10;4.40;;;13.60;79.00;;;;;;7373044;19;20078;-85
2022/12/20 00:11:39;;;;;;;12.13;4.13;;;13.60;78.80;;;;;;7373247;19;20027;-83
2022/12/20 00:14:08;;;;;;;12.52;4.38;;;13.60;78.70;;;;;;7371921;19;20022;-85
2022/12/20 00:16:40;;;;;;;9.93;3.65;;;13.60;78.60;;;;;;7373687;19;20082;-84
2022/12/20 00:19:09;;;;;;;9.60;4.13;;;13.60;78.80;;;;;;7397883;19;20027;-84
2022/12/20 00:21:39;;;;;;;9.20;3.97;;;13.60;78.70;;;;;;7373356;19;20082;-84
2022/12/20 00:24:08;;;;;;;10.43;3.80;;;13.60;78.90;;;;;;7372103;19;20039;-83
2022/12/20 00:26:39;;;;;;;11.13;3.78;;;13.60;78.70;;;;;;7375083;19;20060;-84
2022/12/20 00:29:08;;;;;;;8.25;4.15;;;13.60;78.70;;;;;;7392712;19;20078;-83
2022/12/20 00:31:39;;;;;;;6.80;3.65;;;13.60;79.50;;;;;;7397015;19;20006;-84
2022/12/20 00:34:08;;;;;;;9.35;4.50;;;13.50;78.80;;;;;;7416297;19;20018;-82
2022/12/20 00:36:37;;;;;;;8.38;3.28;;;13.60;78.80;;;;;;7400678;19;20026;-83
2022/12/20 00:39:06;;;;;;;7.53;3.88;;;13.60;78.90;;;;;;7375784;19;20551;-83
2022/12/20 00:41:36;;;;;;;17.75;4.20;;;13.60;78.90;;;;;;7371909;19;20089;-83
2022/12/20 00:44:06;;;;;;;10.45;3.20;;;13.60;78.80;;;;;;7368930;19;20692;-84
2022/12/20 00:46:35;;;;;;;12.55;3.75;;;13.60;78.80;;;;;;7375478;19;20108;-84
2022/12/20 00:49:07;;;;;;;11.95;3.35;;;13.60;78.90;;;;;;7401528;19;20051;-84
2022/12/20 00:51:35;;;;;;;10.07;3.85;;;13.60;78.90;;;;;;7377825;19;20085;-84
2022/12/20 00:54:04;;;;;;;11.13;3.47;;;13.60;78.80;;;;;;7376239;19;20040;-83
2022/12/20 00:56:33;;;;;;;6.65;3.15;;;13.60;78.70;;;;;;7377151;19;20810;-83
2022/12/20 00:59:02;;;;;;;10.10;3.40;;;13.60;78.80;;;;;;7377541;19;20081;-83
2022/12/20 01:01:33;;;;;;;10.93;3.65;;;13.60;78.70;;;;;;7378723;19;20114;-83
2022/12/20 01:04:03;;;;;;;12.63;3.67;;;13.70;78.60;;;;;;7400179;19;20018;-84
2022/12/20 01:06:35;;;;;;;13.77;3.65;;;13.70;78.40;;;;;;7377644;19;20018;-83
2022/12/20 01:09:04;;;;;;;9.00;3.10;;;13.70;78.40;;;;;;7377692;19;20110;-84
2022/12/20 01:11:35;;;;;;;7.63;3.35;;;13.70;78.30;;;;;;7377201;19;20449;-84
2022/12/20 01:14:06;;;;;;;9.98;3.50;;;13.60;78.50;;;;;;7377112;19;20941;-84
2022/12/20 01:16:39;;;;;;;11.38;3.40;;;13.70;78.50;;;;;;7379137;19;20094;-83
2022/12/20 01:19:09;;;;;;;6.32;2.80;;;13.70;78.30;;;;;;7398544;19;20856;-84
2022/12/20 01:21:43;;;;;;;13.98;3.35;;;13.80;78.20;;;;;;7376932;19;20011;-84
2022/12/20 01:24:12;;;;;;;8.68;2.50;;;13.70;78.20;;;;;;7377338;19;20027;-84
2022/12/20 01:26:41;;;;;;;12.00;3.30;;;13.70;78.30;;;;;;7376364;19;20057;-85
2022/12/20 01:29:10;;;;;;;10.30;3.03;;;13.70;78.20;;;;;;7376511;19;20073;-84
2022/12/20 01:31:38;;;;;;;12.32;3.58;;;13.70;78.00;;;;;;7375346;19;20018;-84
2022/12/20 01:34:08;;;;;;;9.00;3.00;;;13.70;78.20;;;;;;7396555;19;20086;-84
2022/12/20 01:36:40;;;;;;;6.82;3.17;;;13.80;78.30;;;;;;7378395;19;20364;-84
2022/12/20 01:39:15;;;;;;;10.95;3.15;;;13.70;78.40;;;;;;7377031;19;20021;-84
2022/12/20 01:41:45;;;;;;;7.25;3.10;;;13.80;78.30;;;;;;7376535;19;20028;-83
2022/12/20 01:44:44;;;;;;;8.40;3.30;;;13.80;78.10;;;;;;7376118;19;20125;-84
2022/12/20 01:47:15;;;;;;;5.55;2.85;;;13.80;78.20;;;;;;7376484;19;20069;-83
2022/12/20 01:49:48;;;;;;;7.67;2.50;;;13.80;78.00;;;;;;7375817;19;20017;-83
2022/12/20 01:52:24;;;;;;;6.72;3.10;;;13.80;78.00;;;;;;7377198;19;20260;-83
2022/12/20 01:55:00;;;;;;;11.32;3.13;;;13.80;77.90;;;;;;7397031;19;20125;-84
2022/12/20 01:57:34;;;;;;;9.77;3.85;;;13.70;77.90;;;;;;7377716;19;20014;-84
2022/12/20 02:00:03;;;;;;;5.00;2.65;;;13.80;77.70;;;;;;7381421;19;20036;-84
2022/12/20 02:02:33;;;;;;;5.70;2.63;;;13.80;77.60;;;;;;7409552;19;20018;-84
2022/12/20 02:05:02;;;;;;;9.57;3.15;;;13.80;77.50;;;;;;7411497;19;20018;-83
2022/12/20 02:07:35;;;;;;;10.70;3.15;;;13.80;77.30;;;;;;7401318;19;20012;-84
2022/12/20 02:10:05;;;;;;;11.18;3.22;;;13.80;77.30;;;;;;7434186;19;19999;-84
2022/12/20 02:12:39;;;;;;;8.10;3.03;;;13.80;77.20;;;;;;7411722;19;20010;-84
2022/12/20 02:15:22;;;;;;;6.78;2.70;;;13.80;77.30;;;;;;7411151;19;20011;-85
2022/12/20 02:17:59;;;;;;;5.95;3.13;;;13.80;77.20;;;;;;7410018;19;20014;-84
2022/12/20 02:21:22;;;;;;;8.88;2.83;;;13.80;77.00;;;;;;7399874;19;20104;-84
2022/12/20 02:24:23;;;;;;;8.30;2.63;;;13.80;77.00;;;;;;7380390;19;20014;-85
2022/12/20 02:27:34;;;;;;;6.22;3.22;;;13.80;76.80;;;;;;7378099;19;20081;-85
2022/12/20 02:30:17;;;;;;;6.22;3.10;;;13.80;76.70;;;;;;7375697;19;20018;-84
2022/12/20 02:33:01;;;;;;;7.30;3.08;;;13.80;76.50;;;;;;7375604;19;20563;-84
2022/12/20 02:35:33;;;;;;;9.25;3.60;;;13.80;76.50;;;;;;7376073;19;20018;-84
2022/12/20 02:38:03;;;;;;;6.82;2.47;;;13.80;76.30;;;;;;7375570;19;20110;-84
2022/12/20 02:40:41;;;;;;;7.82;2.72;;;13.80;76.10;;;;;;7374130;19;20083;-85
2022/12/20 02:45:14;;;;;;;5.85;2.60;;;13.70;76.10;;;;;;7397874;19;20027;-85
2022/12/20 02:46:02;;;;;;;4.32;2.75;;;13.70;76.10;;;;;;7375357;19;20322;-85
2022/12/20 02:48:33;;;;;;;8.50;2.63;;;13.70;76.90;;;;;;7376013;19;20019;-85
2022/12/20 02:51:04;;;;;;;8.25;2.80;;;13.70;76.10;;;;;;7375379;19;20113;-84
2022/12/20 02:53:33;;;;;;;11.50;3.10;;;13.70;76.10;;;;;;7374980;19;20010;-85
2022/12/20 02:56:07;;;;;;;6.72;2.67;;;13.70;76.00;;;;;;7375459;19;20056;-84
2022/12/20 02:58:44;;;;;;;7.03;2.55;;;13.60;76.10;;;;;;7373750;19;20517;-84
2022/12/20 03:01:22;;;;;;;7.95;2.83;;;13.60;76.10;;;;;;7375752;19;20025;-82
2022/12/20 03:03:53;;;;;;;10.13;2.88;;;13.60;76.20;;;;;;7394142;19;20022;-83
2022/12/20 03:06:22;;;;;;;10.30;2.65;;;13.60;76.30;;;;;;7374578;19;20014;-83
2022/12/20 03:08:51;;;;;;;6.38;2.72;;;13.50;77.00;;;;;;7372802;19;20402;-84
2022/12/20 03:11:19;;;;;;;6.30;3.03;;;13.50;76.20;;;;;;7376185;19;20098;-84
2022/12/20 03:13:48;;;;;;;5.93;2.80;;;13.50;76.30;;;;;;7376528;19;20070;-84
2022/12/20 03:16:19;;;;;;;6.03;2.55;;;13.50;76.20;;;;;;7378509;19;20796;-84
2022/12/20 03:18:48;;;;;;;5.78;3.08;;;13.50;76.10;;;;;;7404077;19;20449;-84
2022/12/20 03:21:17;;;;;;;12.90;2.97;;;13.60;76.00;;;;;;7382778;19;20470;-84
2022/12/20 03:23:45;;;;;;;6.32;2.63;;;13.50;75.80;;;;;;7386289;19;20018;-84
2022/12/20 03:26:14;;;;;;;4.22;2.90;;;13.60;75.80;;;;;;7403044;19;20018;-84
2022/12/20 03:28:43;;;;;;;8.02;2.70;;;13.50;75.80;;;;;;7405081;19;20019;-84
2022/12/20 03:31:11;;;;;;;7.82;3.00;;;13.50;75.90;;;;;;7416556;19;20014;-82
2022/12/20 03:33:43;;;;;;;4.55;2.95;;;13.50;76.00;;;;;;7399608;19;20022;-84
2022/12/20 03:36:12;;;;;;;6.25;2.67;;;13.40;76.00;;;;;;7374404;19;20028;-84
2022/12/20 03:38:40;;;;;;;9.68;2.92;;;13.50;76.00;;;;;;7373553;19;20817;-84
2022/12/20 03:41:09;;;;;;;6.10;2.90;;;13.50;75.80;;;;;;7372886;19;20085;-84
2022/12/20 03:43:38;;;;;;;6.88;2.60;;;13.40;75.80;;;;;;7370719;19;20082;-84
2022/12/20 03:46:06;;;;;;;8.45;2.92;;;13.40;75.80;;;;;;7395404;19;20093;-84
2022/12/20 03:48:35;;;;;;;8.52;3.22;;;13.40;75.70;;;;;;7371870;19;20082;-84
2022/12/20 03:51:07;;;;;;;9.43;2.53;;;13.40;75.80;;;;;;7371215;19;20118;-84
2022/12/20 03:53:36;;;;;;;6.60;3.08;;;13.40;75.90;;;;;;7370728;19;20086;-84
2022/12/20 03:56:04;;;;;;;5.60;2.83;;;13.40;75.80;;;;;;7369510;19;20078;-84
2022/12/20 03:58:33;;;;;;;7.63;2.50;;;13.40;75.70;;;;;;7371805;19;20039;-83
2022/12/20 04:01:02;;;;;;;7.47;2.90;;;13.40;75.60;;;;;;7392055;19;20549;-84
2022/12/20 04:03:31;;;;;;;5.20;2.75;;;13.50;75.60;;;;;;7371257;19;20018;-84
2022/12/20 04:05:59;;;;;;;8.70;3.03;;;13.50;75.50;;;;;;7372787;19;20085;-84
2022/12/20 04:08:31;;;;;;;6.82;2.60;;;13.50;75.50;;;;;;7373782;19;20541;-84
2022/12/20 04:13:40;;;;;;;4.65;2.38;;;13.50;75.40;;;;;;7373005;19;20014;-84
2022/12/20 04:16:09;;;;;;;8.23;2.60;;;13.50;75.20;;;;;;7395808;19;20091;-84
2022/12/20 04:18:38;;;;;;;7.55;2.63;;;13.50;75.30;;;;;;7373790;19;20388;-84
2022/12/20 04:21:08;;;;;;;5.28;2.53;;;13.50;75.20;;;;;;7372180;19;20094;-84
2022/12/20 04:23:41;;;;;;;7.72;2.33;;;13.60;75.50;;;;;;7370868;19;20010;-84
2022/12/20 04:26:12;;;;;;;5.60;2.42;;;13.50;75.20;;;;;;7371600;19;20932;-83
2022/12/20 04:28:44;;;;;;;9.80;2.42;;;13.50;75.10;;;;;;7374004;19;20014;-84
2022/12/20 04:31:13;;;;;;;5.15;2.42;;;13.50;76.00;;;;;;7374335;19;20093;-81
2022/12/20 04:33:42;;;;;;;9.23;2.30;;;13.50;75.10;;;;;;7393805;19;20039;-83
2022/12/20 04:36:14;;;;;;;2.75;2.17;;;13.60;75.00;;;;;;7371107;19;20021;-84
2022/12/20 04:38:46;;;;;;;5.32;2.10;;;13.60;75.10;;;;;;7371677;19;20022;-84
2022/12/20 04:41:21;;;;;;;7.43;2.47;;;13.60;75.10;;;;;;7370745;19;20032;-83
2022/12/20 04:43:51;;;;;;;7.00;2.92;;;13.60;74.80;;;;;;7373087;19;20018;-83
2022/12/20 04:46:20;;;;;;;7.25;2.42;;;13.60;74.90;;;;;;7371430;19;20085;-82
2022/12/20 04:48:48;;;;;;;3.25;2.42;;;13.60;74.80;;;;;;7391260;19;20093;-83
2022/12/20 04:51:17;;;;;;;4.78;2.40;;;13.60;75.00;;;;;;7371181;19;20017;-83
2022/12/20 04:53:47;;;;;;;5.35;2.05;;;13.60;75.70;;;;;;7378739;19;20399;-83
2022/12/20 04:56:20;;;;;;;6.93;2.22;;;13.60;75.70;;;;;;7398220;19;20031;-83
2022/12/20 04:58:51;;;;;;;7.32;1.80;;;13.60;74.80;;;;;;7389404;19;20018;-82
2022/12/20 05:01:20;;;;;;;6.45;2.05;;;13.60;74.80;;;;;;7370135;19;20030;-81
2022/12/20 05:03:50;;;;;;;4.03;2.40;;;13.70;74.70;;;;;;7390330;19;20105;-82
2022/12/20 05:06:20;;;;;;;8.20;1.95;;;13.70;74.70;;;;;;7368977;19;20026;-82
2022/12/20 05:08:51;;;;;;;8.50;2.40;;;13.70;74.60;;;;;;7368761;19;20094;-82
2022/12/20 05:11:20;;;;;;;4.28;1.85;;;13.70;74.50;;;;;;7370513;19;20090;-83
2022/12/20 05:13:48;;;;;;;4.18;1.90;;;13.70;74.50;;;;;;7370894;19;20440;-83
2022/12/20 05:16:17;;;;;;;6.22;2.50;;;13.70;74.40;;;;;;7369101;19;20544;-82
2022/12/20 05:18:46;;;;;;;5.57;2.05;;;13.70;74.60;;;;;;7393563;19;20081;-83
2022/12/20 05:26:40;;;;;;;5.97;1.83;;;13.70;74.50;;;;;;7371975;19;20025;-83
2022/12/20 05:29:08;;;;;;;7.43;2.13;;;13.60;74.50;;;;;;7371837;19;20034;-83
2022/12/20 05:31:37;;;;;;;5.95;2.10;;;13.70;74.80;;;;;;7371989;19;20018;-83
2022/12/20 05:34:06;;;;;;;3.65;1.83;;;13.70;74.60;;;;;;7396286;19;20026;-83
2022/12/20 05:36:34;;;;;;;8.85;1.88;;;13.80;74.40;;;;;;7376981;19;20442;-83
2022/12/20 05:39:06;;;;;;;5.68;1.92;;;13.80;74.30;;;;;;7376292;19;20648;-83
2022/12/20 05:41:35;;;;;;;7.35;2.00;;;13.70;74.20;;;;;;7378488;19;20014;-83
2022/12/20 05:44:03;;;;;;;5.10;1.90;;;13.80;74.40;;;;;;7376248;19;20114;-83
2022/12/20 05:46:32;;;;;;;4.53;1.70;;;13.80;74.50;;;;;;7379769;19;20080;-83
2022/12/20 05:49:01;;;;;;;4.72;1.80;;;13.80;74.40;;;;;;7396036;19;20106;-83
2022/12/20 05:51:29;;;;;;;3.38;1.88;;;13.80;74.50;;;;;;7376377;19;20019;-83
2022/12/20 05:53:58;;;;;;;6.20;1.80;;;13.80;74.30;;;;;;7377073;19;20172;-83
2022/12/20 05:56:30;;;;;;;8.85;2.90;;;13.90;74.10;;;;;;7376472;19;20140;-83
2022/12/20 05:58:58;;;;;;;;;;;13.90;74.60;;;;;;7378561;19;20025;-83
2022/12/20 06:01:27;;;;;;;5.40;2.20;;;14.00;74.60;;;;;;7377157;19;19922;-83
2022/12/20 06:03:56;;;;;;;6.97;2.30;;;14.00;74.80;;;;;;7399036;19;20010;-83
2022/12/20 06:06:24;;;;;;;4.57;2.10;;;13.90;75.40;;;;;;7376890;19;20022;-84
2022/12/20 06:08:54;;;;;;;5.72;1.95;;;14.00;74.30;;;;;;7376874;19;20110;-84
2022/12/20 06:11:23;;;;;;;4.80;1.85;;;13.90;73.90;;;;;;7375110;19;20018;-83
2022/12/20 06:13:55;;;;;;;7.25;1.88;;;13.90;74.20;;;;;;7376360;19;20019;-83
2022/12/20 06:16:24;;;;;;;6.18;2.38;;;13.90;74.20;;;;;;7377349;19;20090;-84
2022/12/20 06:18:53;;;;;;;5.05;1.92;;;13.90;73.90;;;;;;7401022;19;20019;-83
2022/12/20 06:21:21;;;;;;;7.57;2.35;;;13.90;74.10;;;;;;7393212;19;20019;-82
2022/12/20 06:23:50;;;;;;;4.40;1.95;;;13.90;74.00;;;;;;7394989;19;20031;-83
2022/12/20 06:26:19;;;;;;;5.10;1.92;;;13.90;74.10;;;;;;7377595;19;20018;-83
2022/12/20 06:28:51;;;;;;;4.32;2.15;;;13.90;74.90;;;;;;7375549;19;20093;-82
2022/12/20 06:31:22;;;;;;;7.07;2.33;;;13.80;74.50;;;;;;7373159;19;20022;-82
2022/12/20 06:33:51;;;;;;;8.52;2.13;;;13.90;74.50;;;;;;7397340;19;20096;-83
2022/12/20 06:36:20;;;;;;;5.25;1.73;;;13.90;74.20;;;;;;7374010;19;20086;-86
2022/12/20 06:38:48;;;;;;;6.35;2.30;;;13.90;74.20;;;;;;7374513;19;20018;-84
2022/12/20 06:41:17;;;;;;;5.85;2.10;;;14.00;74.20;;;;;;7375932;19;20094;-83
2022/12/20 06:43:49;;;;;;;7.82;2.10;;;14.00;74.20;;;;;;7386842;19;20022;-89
2022/12/20 06:46:18;;;;;;;5.55;1.80;;;13.90;74.40;;;;;;7399706;19;20002;-90
2022/12/20 06:48:49;;;;;;;2.40;1.48;;;14.00;74.40;;;;;;7418975;19;20018;-91
2022/12/20 06:51:18;;;;;;;11.63;1.90;;;14.00;75.10;;;;;;7399694;19;20014;-91
2022/12/20 06:53:47;;;;;;;5.47;1.83;;;14.00;76.20;;;;;;7392813;19;20021;-89
2022/12/20 06:56:16;;;;;;;7.25;1.50;;;14.00;74.90;;;;;;7393329;19;20027;-90
2022/12/20 06:58:45;;;;;;;5.25;1.95;;;14.10;74.30;;;;;;7393177;19;20019;-88
2022/12/20 07:01:14;;;;;;;3.47;1.85;;;14.10;74.10;;;;;;7391422;19;20043;-86
2022/12/20 07:03:46;;;;;;;9.43;2.28;;;14.10;73.90;;;;;;7411517;19;20022;-87
2022/12/20 07:06:17;;;;;;;5.47;1.63;;;14.10;73.80;;;;;;7393511;19;20011;-88
2022/12/20 07:11:20;;;;;;;4.50;1.90;;;14.10;74.00;;;;;;7386507;19;20019;-91
2022/12/20 07:19:14;;;;;;;4.13;1.65;;;14.20;73.50;;;;;;7338752;19;20078;-82
2022/12/20 07:24:21;;;;;;;10.40;2.08;;;14.20;73.40;;;;;;7348799;19;20006;-87
2022/12/20 07:26:49;;;;;;;;;;;14.10;73.30;;;;;;7395781;19;20010;-84
2022/12/20 07:29:18;;;;;;;7.25;1.88;;;14.20;73.20;;;;;;7387950;19;19918;-88
2022/12/20 07:31:47;;;;;;;8.23;2.10;;;14.00;73.50;;;;;;7406661;19;20042;-87
2022/12/20 07:34:15;;;;;;;4.63;1.77;;;14.10;74.20;;;;;;7400760;19;20010;-85
2022/12/20 07:36:44;;;;;;;12.32;1.88;;;14.10;73.30;;;;;;7423257;19;20026;-85
2022/12/20 07:39:13;;;;;;;4.97;1.83;;;14.10;73.20;;;;;;7379687;19;20018;-86
2022/12/20 07:41:44;;;;;;;2.00;1.40;;;14.20;73.30;;;;;;7372559;19;20319;-84
2022/12/20 07:44:13;;;;;;;2.90;1.60;;;14.10;73.10;;;;;;7372450;19;20110;-85
2022/12/20 07:46:41;;;;;;;6.97;2.10;;;14.10;73.00;;;;;;7400965;19;20035;-84
2022/12/20 07:49:11;;;;;;;4.35;1.70;;;14.20;73.00;;;;;;7425166;19;20007;-83
2022/12/20 07:51:43;;;;;;;5.97;1.60;;;14.20;72.80;;;;;;7401818;19;20007;-85
2022/12/20 07:54:15;;;;;;;5.63;2.13;;;14.10;72.70;;;;;;7379517;19;20023;-86
2022/12/20 07:56:49;;;;;;;7.57;1.88;;;14.20;73.50;;;;;;7374400;19;20033;-90
2022/12/20 07:59:21;;;;;;;4.82;1.88;;;14.10;73.10;;;;;;7376831;19;20081;-87
2022/12/20 08:01:50;;;;;;;4.68;1.80;;;14.10;73.00;;;;;;7375199;19;20070;-84
2022/12/20 08:04:21;;;;;;;2.88;1.48;;;14.10;72.90;;;;;;7374895;19;20011;-82
2022/12/20 08:06:52;;;;;;;3.75;1.60;;;14.20;72.90;;;;;;7392488;19;20325;-83
2022/12/20 08:09:21;;;;;;;5.35;1.83;;;14.20;72.70;;;;;;7371039;19;20376;-82
2022/12/20 08:11:54;;;;;;;6.90;1.92;;;14.10;72.50;;;;;;7371322;19;20043;-81
2022/12/20 08:14:23;;;;;;;5.85;1.50;;;14.10;72.70;;;;;;7371874;19;20015;-82
2022/12/20 08:16:51;;;;;;;3.45;1.85;;;14.10;72.90;;;;;;7372062;19;20090;-83
2022/12/20 08:19:20;;;;;;;3.83;1.95;;;14.20;72.80;;;;;;7370924;19;20438;-81
2022/12/20 08:21:49;;;;;;;2.50;1.60;;;14.20;72.60;;;;;;7389200;19;20094;-82
2022/12/20 08:24:18;;;;;;;10.57;1.77;;;14.20;72.30;;;;;;7367686;19;20019;-83
2022/12/20 08:26:47;;;;;;;9.77;2.20;;;14.30;72.20;;;;;;7369083;19;20097;-83
2022/12/20 08:29:18;;;;;;;6.93;2.03;;;14.30;72.20;;;;;;7368100;19;20040;-83
2022/12/20 08:31:47;;;;;;;;;;;14.30;72.30;;;;;;7371913;19;20059;-82
2022/12/20 08:34:15;;;;;;;3.40;1.60;;;14.40;72.20;;;;;;7367341;19;20002;-82
2022/12/20 08:36:44;;;;;;;4.47;1.80;;;14.40;71.70;;;;;;7390449;19;20018;-82
2022/12/20 08:39:13;;;;;;;8.23;2.25;;;14.40;71.80;;;;;;7366384;19;20553;-81
2022/12/20 08:41:41;;;;;;;4.70;2.10;;;14.40;71.90;;;;;;7371262;19;20125;-82
2022/12/20 08:44:10;;;;;;;6.10;2.10;;;14.40;71.90;;;;;;7368145;19;20019;-81
2022/12/20 08:46:42;;;;;;;6.00;1.67;;;14.30;71.80;;;;;;7367571;19;20007;-81
2022/12/20 08:49:10;;;;;;;;;;;14.30;72.20;;;;;;7391408;19;20019;-82
2022/12/20 08:51:39;;;;;;;7.95;2.00;;;14.40;72.10;;;;;;7368185;19;19989;-82
2022/12/20 08:54:08;;;;;;;4.75;1.60;;;14.40;71.60;;;;;;7370580;19;20050;-83
2022/12/20 08:56:36;;;;;;;5.30;2.13;;;14.40;72.60;;;;;;7368391;19;20498;-84
2022/12/20 08:59:05;;;;;;;6.93;1.80;;;14.40;71.90;;;;;;7368889;19;20051;-83
2022/12/20 09:01:35;;;;;;;13.68;2.28;;;14.50;72.40;;;;;;7368192;19;20039;-80
2022/12/20 09:04:07;;;;;;;10.35;2.00;;;14.50;72.70;;;;;;7391171;19;20022;-83
2022/12/20 09:06:37;;;;;;;4.88;1.80;;;14.40;72.70;;;;;;7369732;19;20053;-82
2022/12/20 09:09:06;;;;;;;4.50;1.60;;;14.50;72.70;;;;;;7376708;19;20018;-81
2022/12/20 09:11:36;;;;;;;3.42;2.00;;;14.40;73.30;;;;;;7376186;19;20015;-81
2022/12/20 09:14:04;;;;;;;12.10;2.00;;;14.30;73.50;;;;;;7377138;19;20082;-83
2022/12/20 09:16:34;;;;;;;5.18;2.10;;;14.30;74.40;;;;;;7397036;19;20028;-82
2022/12/20 09:19:07;;;;;;;12.25;1.98;;;14.40;74.80;;;;;;7432844;19;20018;-83
2022/12/20 09:21:36;;;;;;;6.93;1.98;;;14.40;75.10;;;;;;7382300;19;20027;-83
2022/12/20 09:24:05;;;;;;;9.70;2.30;;;14.30;75.60;;;;;;7374909;19;20019;-84
2022/12/20 09:26:35;;;;;;;9.90;2.35;;;14.20;76.80;;;;;;7376177;19;20014;-83
2022/12/20 09:29:06;;;;;;;6.68;2.22;;;14.10;77.60;;;;;;7373329;19;20318;-81
2022/12/20 09:31:35;;;;;;;6.05;2.15;;;14.00;77.90;;;;;;7377564;19;20018;-80
2022/12/20 09:34:07;;;;;;;7.60;2.60;;;14.10;78.00;;;;;;7396889;19;20030;-83
2022/12/20 09:36:35;;;;;;;6.43;2.22;;;14.10;78.50;;;;;;7373260;19;20043;-83
2022/12/20 09:39:04;;;;;;;6.82;2.33;;;13.90;79.70;;;;;;7374550;19;20007;-82
2022/12/20 09:41:36;;;;;;;8.07;2.20;;;13.80;80.10;;;;;;7375645;19;20102;-83
2022/12/20 09:44:15;;;;;;;5.47;2.40;;;13.90;80.20;;;;;;7373974;19;20117;-82
2022/12/20 09:46:45;;;;;;;9.23;2.55;;;13.90;80.40;;;;;;7377007;19;20028;-83
2022/12/20 09:49:20;;;;;;;9.45;2.72;;;14.00;80.70;;;;;;7376137;19;20023;-83
2022/12/20 09:52:01;;;;;;;11.13;3.00;;;14.00;80.70;;;;;;7394812;19;20010;-81
2022/12/20 09:54:33;;;;;;;;;;;13.80;81.40;;;;;;7374620;19;20127;-80
2022/12/20 09:57:09;;;;;;;11.20;2.65;;;13.80;82.20;;;;;;7371974;19;19922;-80
2022/12/20 09:59:42;;;;;;;11.45;3.10;;;13.90;81.90;;;;;;7372338;19;20439;-81
2022/12/20 10:02:12;;;;;;;12.85;2.63;;;13.80;81.90;;;;;;7373400;19;20102;-80
2022/12/20 10:04:44;;;;;;;17.17;2.92;;;13.90;82.00;;;;;;7375466;19;20018;-84
2022/12/20 10:07:27;;;;;;;15.68;3.30;;;14.00;81.70;;;;;;7380245;19;20317;-82
2022/12/20 10:10:19;;;;;;;11.23;2.70;;;14.00;81.50;;;;;;7397480;19;20026;-82
2022/12/20 10:12:55;;;;;;;12.10;2.47;;;14.10;81.30;;;;;;7373028;19;20022;-82
2022/12/20 10:15:27;;;;;;;10.38;3.13;;;14.10;81.10;;;;;;7379404;19;20026;-82
2022/12/20 10:18:06;;;;;;;8.32;3.20;;;14.20;81.10;;;;;;7378126;19;20098;-82
2022/12/20 10:20:48;;;;;;;9.35;3.05;;;14.20;81.30;;;;;;7383911;19;20055;-84
2022/12/20 10:23:22;;;;;;;;;;;14.20;81.30;;;;;;7389978;19;20014;-84
2022/12/20 10:25:52;;;;;;;10.63;3.30;;;14.30;81.20;;;;;;7378767;19;19965;-81
2022/12/20 10:28:26;;;;;;;17.02;5.68;;;14.30;81.10;;;;;;7368284;19;20032;-79
2022/12/20 10:30:55;;;;;;;28.73;8.88;;;14.10;81.50;;;;;;7395043;19;20086;-80
2022/12/20 10:33:25;;;;;;;27.95;8.55;;;14.10;81.60;;;;;;7372923;19;20110;-80
2022/12/20 10:35:56;;;;;;;16.27;4.55;;;14.20;81.90;;;;;;7371318;19;20021;-81
2022/12/20 10:38:25;;;;;;;8.63;4.20;;;14.10;81.90;;;;;;7371665;19;20105;-81
2022/12/20 10:41:02;;;;;;;9.95;3.92;;;14.20;81.90;;;;;;7374384;19;20011;-84
2022/12/20 10:43:41;;;;;;;11.85;4.22;;;14.20;81.90;;;;;;7376301;19;20102;-81
2022/12/20 10:46:12;;;;;;;10.80;3.90;;;14.20;81.80;;;;;;7398260;19;20081;-82
2022/12/20 10:48:42;;;;;;;9.82;3.92;;;14.30;81.60;;;;;;7382897;19;20022;-84
2022/12/20 10:51:20;;;;;;;15.30;4.35;;;14.30;81.50;;;;;;7381954;19;20430;-86
2022/12/20 10:53:54;;;;;;;18.67;4.72;;;14.30;81.30;;;;;;7373715;19;20082;-89
2022/12/20 10:56:26;;;;;;;9.10;3.60;;;14.30;81.50;;;;;;7376873;19;20021;-84
2022/12/20 10:58:59;;;;;;;;;;;14.30;81.50;;;;;;7384417;19;20022;-88
2022/12/20 11:01:31;;;;;;;11.73;3.97;;;14.30;81.60;;;;;;7377037;19;19922;-83
2022/12/20 11:04:02;;;;;;;13.15;3.72;;;14.30;81.30;;;;;;7395159;19;20018;-85
2022/12/20 11:06:45;;;;;;;5.88;3.10;;;14.30;81.60;;;;;;7373293;19;20019;-84
2022/12/20 11:09:39;;;;;;;11.95;3.78;;;14.30;81.60;;;;;;7371896;19;20105;-84
2022/12/20 11:12:13;;;;;;;10.20;3.30;;;14.30;81.70;;;;;;7375527;19;20018;-83
2022/12/20 11:14:46;;;;;;;12.75;3.65;;;14.30;81.60;;;;;;7373321;19;20094;-83
2022/12/20 11:17:29;;;;;;;13.60;3.58;;;14.30;81.30;;;;;;7378239;19;20137;-82
2022/12/20 11:20:27;;;;;;;5.05;3.05;;;14.30;81.30;;;;;;7370645;19;20106;-83
2022/12/20 11:23:11;;;;;;;10.27;3.97;;;14.30;81.30;;;;;;7369939;19;20033;-85
2022/12/20 11:25:59;;;;;;;9.93;3.72;;;14.30;81.30;;;;;;7369134;19;20017;-82
2022/12/20 11:28:40;;;;;;;11.77;3.83;;;14.40;81.30;;;;;;7371580;19;20102;-85
2022/12/20 11:31:21;;;;;;;10.02;3.65;;;14.40;81.10;;;;;;7396788;19;20078;-86
2022/12/20 11:34:05;;;;;;;9.18;3.70;;;14.40;81.20;;;;;;7372922;19;20010;-81
2022/12/20 11:36:49;;;;;;;20.10;3.78;;;14.40;81.20;;;;;;7371636;19;20314;-83
2022/12/20 11:39:29;;;;;;;11.18;3.67;;;14.50;81.20;;;;;;7373560;19;20062;-84
2022/12/20 11:42:05;;;;;;;10.48;3.33;;;14.50;80.80;;;;;;7374293;19;20078;-89
2022/12/20 11:44:49;;;;;;;9.98;3.45;;;14.50;80.50;;;;;;7377604;19;20446;-87
2022/12/20 11:47:35;;;;;;;11.73;3.40;;;14.50;80.80;;;;;;7395652;19;20035;-92
2022/12/20 11:58:06;;;;;;;12.32;3.50;;;14.50;79.90;;;;;;7374499;19;20047;-91
2022/12/20 12:00:38;;;;;;;12.20;3.50;;;14.50;79.70;;;;;;7392605;19;20014;-91
2022/12/20 12:03:14;;;;;;;16.92;3.45;;;14.50;79.70;;;;;;7404871;19;20052;-92
2022/12/20 12:05:47;;;;;;;10.60;3.03;;;14.40;79.80;;;;;;7401165;19;20009;-92
2022/12/20 12:08:20;;;;;;;8.05;3.28;;;14.40;79.70;;;;;;7401726;19;20022;-92
2022/12/20 12:10:59;;;;;;;6.75;3.50;;;14.50;80.50;;;;;;7402923;19;20010;-93
2022/12/20 12:13:30;;;;;;;8.95;3.13;;;14.50;80.00;;;;;;7408133;19;20010;-91
2022/12/20 12:16:04;;;;;;;7.63;3.00;;;14.50;79.70;;;;;;7429808;19;20018;-91
2022/12/20 12:18:35;;;;;;;6.68;3.30;;;14.60;79.70;;;;;;7396947;19;20021;-93
2022/12/20 12:21:08;;;;;;;11.00;3.25;;;14.60;79.70;;;;;;7397123;19;20019;-90
2022/12/20 12:23:44;;;;;;;12.90;4.35;;;14.60;79.40;;;;;;7386969;19;20031;-88
2022/12/20 12:34:12;;;;;;;10.48;3.50;;;14.70;79.90;;;;;;7405910;19;20018;-87
2022/12/20 12:36:46;;;;;;;;;;;14.60;79.90;;;;;;7385873;19;20394;-88
2022/12/20 12:47:17;;;;;;;12.32;3.67;;;14.40;81.10;;;;;;7403967;19;20035;-91
2022/12/20 12:49:51;;;;;;;11.35;3.80;;;14.50;81.20;;;;;;7361318;19;20007;-83
2022/12/20 12:57:26;;;;;;;10.23;3.38;;;14.50;82.30;;;;;;7386659;19;19918;-89
2022/12/20 12:59:55;;;;;;;11.15;4.00;;;14.50;81.80;;;;;;7370278;19;20055;-83
2022/12/20 13:02:37;;;;;;;13.90;4.32;;;14.60;82.00;;;;;;7392683;19;20014;-88
2022/12/20 13:05:37;;;;;;;16.05;3.70;;;14.50;82.10;;;;;;7381346;19;20018;-87
2022/12/20 13:08:16;;;;;;;10.55;3.75;;;14.50;82.20;;;;;;7391038;19;20018;-91
2022/12/20 13:11:03;;;;;;;10.68;3.72;;;14.40;82.50;;;;;;7373663;19;20058;-92
2022/12/20 13:18:59;;;;;;;11.73;3.55;;;14.60;82.00;;;;;;7375012;19;20251;-86
2022/12/20 13:29:27;;;;;;;8.13;3.38;;;14.30;83.40;;;;;;7330984;19;20027;-90
2022/12/20 13:31:55;;;;;;;8.23;3.33;;;14.40;83.00;;;;;;7337496;19;20280;-87
2022/12/20 13:39:58;;;;;;;11.70;3.30;;;14.70;82.20;;;;;;7355671;19;20166;-81
2022/12/20 13:42:40;;;;;;;14.95;3.38;;;14.70;82.00;;;;;;7395157;19;20015;-85
2022/12/20 13:47:51;;;;;;;10.00;3.75;;;14.60;82.10;;;;;;7351472;19;20192;-86
2022/12/20 13:50:44;;;;;;;7.88;3.97;;;14.60;81.80;;;;;;7379748;19;20014;-90
2022/12/20 13:53:20;;;;;;;8.93;3.95;;;14.60;81.80;;;;;;7395716;19;20003;-91
2022/12/20 13:55:50;;;;;;;8.27;3.45;;;14.70;81.70;;;;;;7376213;19;20034;-91
2022/12/20 13:58:21;;;;;;;12.80;4.05;;;14.70;81.50;;;;;;7378161;19;20024;-92
2022/12/20 14:00:52;;;;;;;12.18;3.92;;;14.60;81.50;;;;;;7427563;19;20011;-91
2022/12/20 14:05:49;;;;;;;14.65;4.00;;;14.80;81.40;;;;;;7367611;19;20914;-93
2022/12/20 14:08:22;;;;;;;13.43;3.50;;;14.70;81.20;;;;;;7386492;19;20013;-89
2022/12/20 14:10:54;;;;;;;7.80;3.50;;;14.60;81.50;;;;;;7400807;19;20021;-92
2022/12/20 14:13:26;;;;;;;9.55;4.45;;;14.60;81.50;;;;;;7386982;19;20021;-90
2022/12/20 14:15:57;;;;;;;12.57;3.40;;;14.60;81.60;;;;;;7410379;19;20090;-91
2022/12/20 14:18:27;;;;;;;;;;;14.60;81.60;;;;;;7392196;19;20018;-91
2022/12/20 14:21:00;;;;;;;14.32;3.75;;;14.70;81.90;;;;;;7398215;19;19918;-88
2022/12/20 14:28:43;;;;;;;12.15;3.60;;;14.50;82.50;;;;;;7380880;19;20011;-88